Airfield :
LOGIN :

Register | Disclaimer

   EN    FR    IT 

 










Legend :    VFR   Marginal VFR   IFR   Intensive IFR   Very Intensive IFR
Visi :
Ceiling :
>= 8 km
>= 3000ft
5 to 8 km
1000 to 3000 ft
1500m to 5 km
500 to 1000 ft
800 to 1500m
200 to 500 ft
< 800m
< 200 ft
Symbols :   Thunderstorms  Fog  Heavy snow  Heavy precipitations  Wind > 20 kt
SIGMETs :     Misc.  Thunderstorms  Icing  Turbulence  Mountain Waves  Volcanic Ashes






- Airport Elevation : 433 ft


LFOC - Chateaudun

CURRENT METAR :
  • 010530Z AUTO 02005KT CAVOK M01/M04 Q1021 NOSIG

EXPIRED METARs :
  • 010500Z AUTO 03005KT CAVOK M00/M03 Q1021 NOSIG
  • 010430Z AUTO 03005KT CAVOK M00/M03 Q1021
  • 010400Z AUTO 03008KT CAVOK 00/M03 Q1021
  • 010330Z AUTO 03008KT CAVOK 01/M03 Q1021
  • 010300Z AUTO 03007KT CAVOK 01/M03 Q1021

TAF AMD TAF LFOC
Valid from the 01 at 04:00 until the 02 at 03:00 UTC


010428Z 0104/0203 03007KT CAVOK



MET'MAP, your aeronautical weather chart ! - Copyright ORBIFLY December 2007 - Disclaimer

ORBIFLY MET'MAP TEAM :

Programming & Development : Alexandra Zaïnal
Concept & original design : Baudouin d'Aumeries
Assistance for programming : Marc-Olivier Méhu
Technical & hardware support : Manuel Goepfert

Contact : metmap@orbifly.com




SOURCES & CREDITS :

   NOAA